createdAt,value
2017-02-19T00:00:36.884Z,1018.79
2017-02-19T00:01:50.048Z,1018.75
2017-02-19T00:03:03.176Z,1018.75
2017-02-19T00:04:16.322Z,1018.78
2017-02-19T00:05:29.411Z,1018.76
2017-02-19T00:06:42.513Z,1018.69
2017-02-19T00:07:55.603Z,1018.67
2017-02-19T00:09:08.300Z,1018.64
2017-02-19T00:10:20.994Z,1018.61
2017-02-19T00:11:34.139Z,1018.64
2017-02-19T00:12:46.828Z,1018.65
2017-02-19T00:14:00.132Z,1018.59
2017-02-19T00:15:13.194Z,1018.61
2017-02-19T00:16:25.884Z,1018.63
2017-02-19T00:17:39.020Z,1018.61
2017-02-19T00:18:52.083Z,1018.58
2017-02-19T00:20:05.164Z,1018.58
2017-02-19T00:21:17.891Z,1018.57
2017-02-19T00:22:30.629Z,1018.61
2017-02-19T00:23:43.330Z,1018.57
2017-02-19T00:24:56.420Z,1018.59
2017-02-19T00:26:09.499Z,1018.56
2017-02-19T00:27:22.212Z,1018.58
2017-02-19T00:28:34.915Z,1018.55
2017-02-19T00:29:48.016Z,1018.59
2017-02-19T00:31:01.131Z,1018.65
2017-02-19T00:32:14.245Z,1018.65
2017-02-19T00:33:27.303Z,1018.64
2017-02-19T00:34:39.993Z,1018.6
2017-02-19T00:35:52.708Z,1018.61
2017-02-19T00:37:05.861Z,1018.62
2017-02-19T00:38:18.558Z,1018.62
2017-02-19T00:39:31.305Z,1018.59
2017-02-19T00:40:44.398Z,1018.6
2017-02-19T00:41:57.518Z,1018.55
2017-02-19T00:43:10.606Z,1018.55
2017-02-19T00:44:23.695Z,1018.51
2017-02-19T00:45:36.799Z,1018.59
2017-02-19T00:46:49.827Z,1018.51
2017-02-19T00:48:02.966Z,1018.52
2017-02-19T00:49:15.646Z,1018.52
2017-02-19T00:50:28.814Z,1018.47
2017-02-19T00:51:41.541Z,1018.51
2017-02-19T00:52:54.625Z,1018.52
2017-02-19T00:54:07.746Z,1018.49
2017-02-19T00:55:20.845Z,1018.54
2017-02-19T00:56:33.910Z,1018.5
2017-02-19T00:57:47.014Z,1018.49
2017-02-19T00:59:00.081Z,1018.45
2017-02-19T01:00:13.180Z,1018.4
2017-02-19T01:01:26.257Z,1018.39
2017-02-19T01:02:39.342Z,1018.38
2017-02-19T01:03:52.044Z,1018.37
2017-02-19T01:05:05.140Z,1018.39
2017-02-19T01:06:18.266Z,1018.39
2017-02-19T01:07:30.975Z,1018.34
2017-02-19T01:08:44.027Z,1018.36
2017-02-19T01:09:57.129Z,1018.29
2017-02-19T01:11:10.238Z,1018.37
2017-02-19T01:12:22.934Z,1018.33
2017-02-19T01:13:36.271Z,1018.35
2017-02-19T01:14:49.376Z,1018.33
2017-02-19T01:16:02.478Z,1018.28
2017-02-19T01:17:14.790Z,1018.21
2017-02-19T01:18:27.913Z,1018.26
2017-02-19T01:19:41.039Z,1018.2
2017-02-19T01:20:54.185Z,1018.17
2017-02-19T01:22:07.275Z,1018.14
2017-02-19T01:23:20.021Z,1018.16
2017-02-19T01:24:33.117Z,1018.09
2017-02-19T01:25:46.223Z,1018.1
2017-02-19T01:26:59.308Z,1018.07
2017-02-19T01:28:12.386Z,1018.05
2017-02-19T01:29:25.460Z,1018.06
2017-02-19T01:30:38.552Z,1018.01
2017-02-19T01:31:51.660Z,1018
2017-02-19T01:33:04.763Z,1017.93
2017-02-19T01:34:17.834Z,1017.91
2017-02-19T01:35:30.555Z,1017.9
2017-02-19T01:36:42.859Z,1017.9
2017-02-19T01:37:55.921Z,1017.89
2017-02-19T01:39:08.992Z,1017.82
2017-02-19T01:40:22.019Z,1017.8
2017-02-19T01:41:34.703Z,1017.86
2017-02-19T01:42:47.829Z,1017.84
2017-02-19T01:44:00.918Z,1017.89
2017-02-19T01:45:13.221Z,1017.86
2017-02-19T01:46:26.200Z,1017.9
2017-02-19T01:47:39.294Z,1017.85
2017-02-19T01:48:52.393Z,1017.83
2017-02-19T01:50:05.506Z,1017.83
2017-02-19T01:51:18.254Z,1017.87
2017-02-19T01:52:30.980Z,1017.82
2017-02-19T01:53:44.093Z,1017.8
2017-02-19T01:54:57.222Z,1017.78
2017-02-19T01:56:10.358Z,1017.79
2017-02-19T01:57:23.111Z,1017.81
2017-02-19T01:58:36.250Z,1017.78
2017-02-19T01:59:49.297Z,1017.76
2017-02-19T02:01:02.368Z,1017.76
2017-02-19T02:02:15.419Z,1017.75
2017-02-19T02:03:28.140Z,1017.81
2017-02-19T02:04:40.819Z,1017.75
2017-02-19T02:05:53.902Z,1017.69
2017-02-19T02:07:06.972Z,1017.69
2017-02-19T02:08:20.117Z,1017.66
2017-02-19T02:09:33.164Z,1017.69
2017-02-19T02:10:46.242Z,1017.68
2017-02-19T02:11:59.312Z,1017.65
2017-02-19T02:13:12.007Z,1017.63
2017-02-19T02:14:25.116Z,1017.66
2017-02-19T02:15:38.242Z,1017.57
2017-02-19T02:16:51.364Z,1017.56
2017-02-19T02:18:04.037Z,1017.58
2017-02-19T02:19:16.736Z,1017.54
2017-02-19T02:20:29.801Z,1017.53
2017-02-19T02:21:42.943Z,1017.53
2017-02-19T02:22:56.100Z,1017.47
2017-02-19T02:24:09.188Z,1017.45
2017-02-19T02:25:21.736Z,1017.46
2017-02-19T02:26:34.448Z,1017.45
2017-02-19T02:27:47.152Z,1017.39
2017-02-19T02:29:00.249Z,1017.39
2017-02-19T02:30:12.946Z,1017.4
2017-02-19T02:31:26.020Z,1017.38
2017-02-19T02:32:38.786Z,1017.35
2017-02-19T02:33:51.882Z,1017.33
2017-02-19T02:35:04.961Z,1017.31
2017-02-19T02:36:18.098Z,1017.28
2017-02-19T02:37:31.261Z,1017.33
2017-02-19T02:38:43.941Z,1017.32
2017-02-19T02:39:57.036Z,1017.32
2017-02-19T02:41:09.730Z,1017.28
2017-02-19T02:42:22.466Z,1017.33
2017-02-19T02:43:35.174Z,1017.36
2017-02-19T02:44:48.353Z,1017.27
2017-02-19T02:46:01.460Z,1017.33
2017-02-19T02:47:14.160Z,1017.29
2017-02-19T02:48:26.475Z,1017.29
2017-02-19T02:49:39.559Z,1017.3
2017-02-19T02:50:52.641Z,1017.29
2017-02-19T02:52:06.012Z,1017.29
2017-02-19T02:53:18.721Z,1017.31
2017-02-19T02:54:31.821Z,1017.23
2017-02-19T02:55:44.942Z,1017.23
2017-02-19T02:56:58.060Z,1017.25
2017-02-19T02:58:10.749Z,1017.23
2017-02-19T02:59:23.837Z,1017.2
2017-02-19T03:00:36.916Z,1017.2
2017-02-19T03:01:49.986Z,1017.21
2017-02-19T03:03:03.118Z,1017.23
2017-02-19T03:04:16.221Z,1017.22
2017-02-19T03:05:29.283Z,1017.24
2017-02-19T03:06:42.413Z,1017.24
2017-02-19T03:07:55.474Z,1017.25
2017-02-19T03:09:08.188Z,1017.23
2017-02-19T03:10:20.914Z,1017.25
2017-02-19T03:11:34.004Z,1017.22
2017-02-19T03:12:47.087Z,1017.23
2017-02-19T03:14:00.228Z,1017.16
2017-02-19T03:15:12.541Z,1017.17
2017-02-19T03:16:25.636Z,1017.2
2017-02-19T03:17:38.740Z,1017.17
2017-02-19T03:18:51.879Z,1017.19
2017-02-19T03:20:04.998Z,1017.17
2017-02-19T03:21:17.320Z,1017.19
2017-02-19T03:22:30.085Z,1017.16
2017-02-19T03:23:43.137Z,1017.17
2017-02-19T03:24:56.509Z,1017.18
2017-02-19T03:26:09.655Z,1017.14
2017-02-19T03:27:22.782Z,1017.09
2017-02-19T03:28:35.878Z,1017.11
2017-02-19T03:29:48.974Z,1017.11
2017-02-19T03:31:02.064Z,1017.1
2017-02-19T03:32:15.126Z,1017.11
2017-02-19T03:33:28.211Z,1017.07
2017-02-19T03:34:41.276Z,1017.08
2017-02-19T03:35:54.350Z,1017.04
2017-02-19T03:37:07.394Z,1017.05
2017-02-19T03:38:20.142Z,1017.06
2017-02-19T03:39:33.234Z,1017.06
2017-02-19T03:40:46.355Z,1017.1
2017-02-19T03:41:59.476Z,1017.02
2017-02-19T03:43:12.147Z,1017.04
2017-02-19T03:44:25.224Z,1017.04
2017-02-19T03:45:38.338Z,1016.98
2017-02-19T03:46:51.436Z,1016.92
2017-02-19T03:48:04.112Z,1016.97
2017-02-19T03:49:16.829Z,1016.94
2017-02-19T03:50:29.864Z,1016.9
2017-02-19T03:51:42.922Z,1016.91
2017-02-19T03:52:56.046Z,1016.83
2017-02-19T03:54:09.136Z,1016.88
2017-02-19T03:55:22.237Z,1016.79
2017-02-19T03:56:35.326Z,1016.82
2017-02-19T03:57:48.671Z,1016.78
2017-02-19T03:59:01.737Z,1016.84
2017-02-19T04:00:14.415Z,1016.8
2017-02-19T04:01:26.742Z,1016.81
2017-02-19T04:02:39.829Z,1016.77
2017-02-19T04:03:52.933Z,1016.79
2017-02-19T04:05:06.004Z,1016.78
2017-02-19T04:06:19.094Z,1016.79
2017-02-19T04:07:32.196Z,1016.79
2017-02-19T04:08:45.316Z,1016.82
2017-02-19T04:09:58.423Z,1016.8
2017-02-19T04:11:10.709Z,1016.83
2017-02-19T04:12:23.379Z,1016.8
2017-02-19T04:13:36.450Z,1016.78
2017-02-19T04:14:49.557Z,1016.75
2017-02-19T04:16:02.661Z,1016.77
2017-02-19T04:17:15.357Z,1016.72
2017-02-19T04:18:28.434Z,1016.73
2017-02-19T04:19:41.555Z,1016.76
2017-02-19T04:20:54.619Z,1016.73
2017-02-19T04:22:07.697Z,1016.72
2017-02-19T04:23:20.785Z,1016.68
2017-02-19T04:24:33.914Z,1016.74
2017-02-19T04:25:47.034Z,1016.69
2017-02-19T04:27:00.141Z,1016.74
2017-02-19T04:28:13.225Z,1016.7
2017-02-19T04:29:26.371Z,1016.69
2017-02-19T04:30:39.734Z,1016.7
2017-02-19T04:31:52.451Z,1016.69
2017-02-19T04:33:05.196Z,1016.67
2017-02-19T04:34:17.880Z,1016.64
2017-02-19T04:35:30.976Z,1016.6
2017-02-19T04:36:44.072Z,1016.59
2017-02-19T04:37:57.197Z,1016.57
2017-02-19T04:39:10.299Z,1016.61
2017-02-19T04:40:23.347Z,1016.59
2017-02-19T04:41:36.455Z,1016.56
2017-02-19T04:42:49.551Z,1016.52
2017-02-19T04:44:02.616Z,1016.53
2017-02-19T04:45:15.712Z,1016.53
2017-02-19T04:46:28.790Z,1016.56
2017-02-19T04:47:41.987Z,1016.5
2017-02-19T04:48:54.650Z,1016.51
2017-02-19T04:50:07.762Z,1016.5
2017-02-19T04:51:20.468Z,1016.47
2017-02-19T04:52:33.518Z,1016.43
2017-02-19T04:53:46.614Z,1016.39
2017-02-19T04:54:59.721Z,1016.4
2017-02-19T04:56:12.780Z,1016.42
2017-02-19T04:57:25.102Z,1016.41
2017-02-19T04:58:38.175Z,1016.39
2017-02-19T04:59:51.289Z,1016.39
2017-02-19T05:01:03.965Z,1016.4
2017-02-19T05:02:16.647Z,1016.41
2017-02-19T05:03:29.718Z,1016.32
2017-02-19T05:04:42.796Z,1016.33
2017-02-19T05:05:55.491Z,1016.29
2017-02-19T05:07:08.219Z,1016.29
2017-02-19T05:08:21.340Z,1016.25
2017-02-19T05:09:34.447Z,1016.23
2017-02-19T05:10:47.535Z,1016.25
2017-02-19T05:12:00.622Z,1016.31
2017-02-19T05:13:13.724Z,1016.24
2017-02-19T05:14:26.631Z,1016.26
2017-02-19T05:15:39.734Z,1016.25
2017-02-19T05:16:52.780Z,1016.27
2017-02-19T05:18:05.856Z,1016.26
2017-02-19T05:19:17.804Z,1016.23
2017-02-19T05:20:30.579Z,1016.24
2017-02-19T05:21:43.713Z,1016.21
2017-02-19T05:22:56.790Z,1016.26
2017-02-19T05:24:09.872Z,1016.25
2017-02-19T05:25:22.607Z,1016.24
2017-02-19T05:26:35.663Z,1016.24
2017-02-19T05:27:48.749Z,1016.22
2017-02-19T05:29:01.839Z,1016.19
2017-02-19T05:30:14.608Z,1016.14
2017-02-19T05:31:27.731Z,1016.14
2017-02-19T05:32:40.807Z,1016.11
2017-02-19T05:33:53.900Z,1016.07
2017-02-19T05:35:07.018Z,1016.06
2017-02-19T05:36:20.095Z,1016.06
2017-02-19T05:37:32.784Z,1016.06
2017-02-19T05:38:45.905Z,1016.03
2017-02-19T05:39:59.011Z,1016.01
2017-02-19T05:41:12.147Z,1015.97
2017-02-19T05:42:25.244Z,1016.01
2017-02-19T05:43:38.347Z,1015.96
2017-02-19T05:44:51.468Z,1015.94
2017-02-19T05:46:04.573Z,1015.95
2017-02-19T05:47:17.676Z,1015.94
2017-02-19T05:48:30.740Z,1015.86
2017-02-19T05:49:43.486Z,1015.85
2017-02-19T05:50:56.540Z,1015.87
2017-02-19T05:52:09.610Z,1015.84
2017-02-19T05:53:22.706Z,1015.86
2017-02-19T05:54:35.809Z,1015.86
2017-02-19T05:55:48.878Z,1015.9
2017-02-19T05:57:01.576Z,1015.9
2017-02-19T05:58:14.721Z,1015.93
2017-02-19T05:59:27.459Z,1015.92
2017-02-19T06:00:40.540Z,1015.94
2017-02-19T06:01:53.301Z,1015.9
2017-02-19T06:03:06.398Z,1015.88
2017-02-19T06:04:19.093Z,1015.9
2017-02-19T06:05:32.190Z,1015.87
2017-02-19T06:06:45.279Z,1015.85
2017-02-19T06:07:57.983Z,1015.81
2017-02-19T06:09:10.678Z,1015.83
2017-02-19T06:10:23.730Z,1015.84
2017-02-19T06:11:36.412Z,1015.78
2017-02-19T06:12:49.540Z,1015.82
2017-02-19T06:14:02.235Z,1015.77
2017-02-19T06:15:15.000Z,1015.8
2017-02-19T06:16:28.105Z,1015.82
2017-02-19T06:17:41.197Z,1015.87
2017-02-19T06:18:54.274Z,1015.86
2017-02-19T06:20:07.371Z,1015.84
2017-02-19T06:21:20.466Z,1015.88
2017-02-19T06:22:33.582Z,1015.86
2017-02-19T06:23:46.684Z,1015.84
2017-02-19T06:24:59.806Z,1015.78
2017-02-19T06:26:12.551Z,1015.75
2017-02-19T06:27:25.683Z,1015.74
2017-02-19T06:28:38.386Z,1015.68
2017-02-19T06:29:51.058Z,1015.74
2017-02-19T06:31:04.111Z,1015.7
2017-02-19T06:32:16.431Z,1015.74
2017-02-19T06:33:29.120Z,1015.76
2017-02-19T06:34:42.164Z,1015.79
2017-02-19T06:35:54.868Z,1015.8
2017-02-19T06:37:07.992Z,1015.84
2017-02-19T06:38:20.705Z,1015.88
2017-02-19T06:39:33.399Z,1015.89
2017-02-19T06:40:46.444Z,1015.9
2017-02-19T06:41:59.567Z,1015.93
2017-02-19T06:43:11.891Z,1015.95
2017-02-19T06:44:24.983Z,1015.95
2017-02-19T06:45:38.077Z,1016
2017-02-19T06:46:51.174Z,1016.01
2017-02-19T06:48:04.277Z,1016.02
2017-02-19T06:49:17.364Z,1016.04
2017-02-19T06:50:30.044Z,1016.01
2017-02-19T06:51:43.109Z,1016.01
2017-02-19T06:52:56.231Z,1016.04
2017-02-19T06:54:09.306Z,1016.03
2017-02-19T06:55:22.013Z,1016.03
2017-02-19T06:56:35.066Z,1016.05
2017-02-19T06:57:48.163Z,1016.04
2017-02-19T06:59:01.265Z,1016.04
2017-02-19T07:00:14.380Z,1016
2017-02-19T07:01:27.456Z,1016
2017-02-19T07:02:40.514Z,1016
2017-02-19T07:03:53.598Z,1015.95
2017-02-19T07:05:06.745Z,1016.02
2017-02-19T07:06:19.434Z,1015.98
2017-02-19T07:07:32.530Z,1016.03
2017-02-19T07:08:45.632Z,1016.07
2017-02-19T07:09:58.770Z,1016.1
2017-02-19T07:11:11.124Z,1016.09
2017-02-19T07:12:23.864Z,1016.06
2017-02-19T07:13:36.826Z,1016.04
2017-02-19T07:14:49.929Z,1016.06
2017-02-19T07:16:03.050Z,1016.06
2017-02-19T07:17:16.114Z,1016.01
2017-02-19T07:18:29.193Z,1016.05
2017-02-19T07:19:42.289Z,1016.06
2017-02-19T07:20:55.332Z,1016.07
2017-02-19T07:22:08.048Z,1016.08
2017-02-19T07:23:21.104Z,1016.06
2017-02-19T07:24:33.821Z,1016.06
2017-02-19T07:25:46.495Z,1016.08
2017-02-19T07:26:59.570Z,1016.09
2017-02-19T07:28:12.315Z,1016.06
2017-02-19T07:29:25.462Z,1016.04
2017-02-19T07:30:38.552Z,1016.02
2017-02-19T07:31:51.672Z,1015.98
2017-02-19T07:33:04.803Z,1015.97
2017-02-19T07:34:17.513Z,1015.94
2017-02-19T07:35:30.552Z,1015.9
2017-02-19T07:36:43.664Z,1015.87
2017-02-19T07:37:56.757Z,1015.91
2017-02-19T07:39:09.846Z,1015.89
2017-02-19T07:40:22.968Z,1015.88
2017-02-19T07:41:36.039Z,1015.88
2017-02-19T07:42:49.116Z,1015.88
2017-02-19T07:44:02.212Z,1015.91
2017-02-19T07:45:15.308Z,1015.94
2017-02-19T07:46:28.453Z,1015.91
2017-02-19T07:47:41.543Z,1015.95
2017-02-19T07:48:54.688Z,1015.89
2017-02-19T07:50:07.791Z,1015.89
2017-02-19T07:51:20.524Z,1015.83
2017-02-19T07:52:33.602Z,1015.82
2017-02-19T07:53:46.672Z,1015.76
2017-02-19T07:54:59.786Z,1015.77
2017-02-19T07:56:12.855Z,1015.78
2017-02-19T07:57:25.170Z,1015.69
2017-02-19T07:58:38.233Z,1015.73
2017-02-19T07:59:51.334Z,1015.7
2017-02-19T08:01:04.698Z,1015.67
2017-02-19T08:02:17.861Z,1015.66
2017-02-19T08:03:30.540Z,1015.68
2017-02-19T08:04:43.642Z,1015.68
2017-02-19T08:05:56.763Z,1015.7
2017-02-19T08:07:09.876Z,1015.64
2017-02-19T08:08:22.949Z,1015.62
2017-02-19T08:09:35.704Z,1015.55
2017-02-19T08:10:48.822Z,1015.55
2017-02-19T08:12:01.937Z,1015.5
2017-02-19T08:13:14.982Z,1015.4
2017-02-19T08:14:28.083Z,1015.4
2017-02-19T08:15:41.172Z,1015.45
2017-02-19T08:16:53.519Z,1015.49
2017-02-19T08:18:06.583Z,1015.44
2017-02-19T08:19:19.737Z,1015.47
2017-02-19T08:20:32.806Z,1015.47
2017-02-19T08:21:45.478Z,1015.5
2017-02-19T08:22:58.534Z,1015.51
2017-02-19T08:24:11.598Z,1015.53
2017-02-19T08:25:24.322Z,1015.52
2017-02-19T08:26:37.422Z,1015.47
2017-02-19T08:27:50.564Z,1015.45
2017-02-19T08:29:03.628Z,1015.5
2017-02-19T08:30:16.748Z,1015.45
2017-02-19T08:31:29.452Z,1015.44
2017-02-19T08:32:42.576Z,1015.39
2017-02-19T08:33:55.653Z,1015.44
2017-02-19T08:35:08.714Z,1015.44
2017-02-19T08:36:21.819Z,1015.34
2017-02-19T08:37:34.524Z,1015.39
2017-02-19T08:38:47.624Z,1015.4
2017-02-19T08:40:00.692Z,1015.35
2017-02-19T08:41:12.243Z,1015.36
2017-02-19T08:42:25.008Z,1015.31
2017-02-19T08:43:38.098Z,1015.29
2017-02-19T08:44:51.180Z,1015.31
2017-02-19T08:46:03.865Z,1015.3
2017-02-19T08:47:16.944Z,1015.3
2017-02-19T08:48:30.087Z,1015.26
2017-02-19T08:49:43.187Z,1015.27
2017-02-19T08:50:56.257Z,1015.27
2017-02-19T08:52:09.327Z,1015.3
2017-02-19T08:53:22.395Z,1015.3
2017-02-19T08:54:35.491Z,1015.26
2017-02-19T08:55:48.606Z,1015.3
2017-02-19T08:57:01.665Z,1015.26
2017-02-19T08:58:14.761Z,1015.22
2017-02-19T08:59:27.851Z,1015.24
2017-02-19T09:00:40.971Z,1015.22
2017-02-19T09:01:54.067Z,1015.23
2017-02-19T09:03:07.224Z,1015.24
2017-02-19T09:04:20.315Z,1015.21
2017-02-19T09:05:33.388Z,1015.22
2017-02-19T09:06:46.468Z,1015.19
2017-02-19T09:07:59.578Z,1015.14
2017-02-19T09:09:12.675Z,1015.18
2017-02-19T09:10:25.445Z,1015.18
2017-02-19T09:11:38.562Z,1015.15
2017-02-19T09:12:51.637Z,1015.12
2017-02-19T09:14:04.725Z,1015.15
2017-02-19T09:15:17.774Z,1015.12
2017-02-19T09:16:30.868Z,1015.06
2017-02-19T09:17:43.937Z,1015.07
2017-02-19T09:18:57.009Z,1015.03
2017-02-19T09:20:10.083Z,1015.08
2017-02-19T09:21:23.182Z,1015.11
2017-02-19T09:22:36.272Z,1015.13
2017-02-19T09:23:49.295Z,1015.12
2017-02-19T09:25:02.395Z,1015.07
2017-02-19T09:26:15.534Z,1015
2017-02-19T09:27:28.636Z,1015.06
2017-02-19T09:28:41.726Z,1015.01
2017-02-19T09:29:54.797Z,1014.95
2017-02-19T09:31:07.501Z,1014.94
2017-02-19T09:32:20.598Z,1014.96
2017-02-19T09:33:33.369Z,1014.94
2017-02-19T09:34:46.463Z,1014.93
2017-02-19T09:35:59.502Z,1014.91
2017-02-19T09:37:12.579Z,1014.93
2017-02-19T09:38:25.699Z,1014.92
2017-02-19T09:39:38.367Z,1014.86
2017-02-19T09:40:51.458Z,1014.9
2017-02-19T09:42:04.535Z,1014.87
2017-02-19T09:43:16.836Z,1014.84
2017-02-19T09:44:29.898Z,1014.83
2017-02-19T09:45:42.944Z,1014.86
2017-02-19T09:46:56.039Z,1014.89
2017-02-19T09:48:08.386Z,1014.82
2017-02-19T09:49:21.455Z,1014.82
2017-02-19T09:50:34.151Z,1014.8
2017-02-19T09:51:46.881Z,1014.77
2017-02-19T09:52:59.993Z,1014.74
2017-02-19T09:54:12.290Z,1014.79
2017-02-19T09:55:25.368Z,1014.85
2017-02-19T09:56:38.498Z,1014.83
2017-02-19T09:57:51.195Z,1014.84
2017-02-19T09:59:04.254Z,1014.81
2017-02-19T10:00:17.371Z,1014.84
2017-02-19T10:01:30.464Z,1014.76
2017-02-19T10:02:43.572Z,1014.68
2017-02-19T10:03:56.682Z,1014.73
2017-02-19T10:05:09.352Z,1014.73
2017-02-19T10:06:22.425Z,1014.74
2017-02-19T10:07:35.501Z,1014.7
2017-02-19T10:08:48.633Z,1014.7
2017-02-19T10:10:01.687Z,1014.71
2017-02-19T10:11:13.599Z,1014.68
2017-02-19T10:12:26.284Z,1014.72
2017-02-19T10:13:39.417Z,1014.7
2017-02-19T10:14:52.132Z,1014.7
2017-02-19T10:16:05.224Z,1014.72
2017-02-19T10:17:18.319Z,1014.71
2017-02-19T10:18:31.414Z,1014.72
2017-02-19T10:19:44.146Z,1014.67
2017-02-19T10:20:56.906Z,1014.7
2017-02-19T10:22:10.021Z,1014.74
2017-02-19T10:23:23.071Z,1014.73
2017-02-19T10:24:35.762Z,1014.73
2017-02-19T10:25:48.861Z,1014.72
2017-02-19T10:27:01.563Z,1014.74
2017-02-19T10:28:14.291Z,1014.73
2017-02-19T10:29:27.388Z,1014.73
2017-02-19T10:30:40.484Z,1014.74
2017-02-19T10:31:53.595Z,1014.72
2017-02-19T10:33:06.750Z,1014.82
2017-02-19T10:34:19.818Z,1014.71
2017-02-19T10:35:32.905Z,1014.73
2017-02-19T10:36:46.080Z,1014.77
2017-02-19T10:37:59.220Z,1014.77
2017-02-19T10:39:11.930Z,1014.75
2017-02-19T10:40:25.013Z,1014.74
2017-02-19T10:41:38.110Z,1014.64
2017-02-19T10:42:51.224Z,1014.7
2017-02-19T10:44:04.353Z,1014.67
2017-02-19T10:45:17.093Z,1014.63
2017-02-19T10:46:30.237Z,1014.61
2017-02-19T10:47:43.415Z,1014.6
2017-02-19T10:48:56.556Z,1014.59
2017-02-19T10:50:09.674Z,1014.52
2017-02-19T10:51:22.431Z,1014.55
2017-02-19T10:52:35.567Z,1014.47
2017-02-19T10:53:48.639Z,1014.53
2017-02-19T10:55:01.734Z,1014.48
2017-02-19T10:56:14.853Z,1014.48
2017-02-19T10:57:27.955Z,1014.4
2017-02-19T10:58:41.077Z,1014.39
2017-02-19T10:59:54.120Z,1014.36
2017-02-19T11:01:06.831Z,1014.37
2017-02-19T11:02:19.941Z,1014.32
2017-02-19T11:03:33.054Z,1014.3
2017-02-19T11:04:46.200Z,1014.27
2017-02-19T11:05:59.302Z,1014.24
2017-02-19T11:07:12.398Z,1014.26
2017-02-19T11:08:25.514Z,1014.24
2017-02-19T11:09:38.591Z,1014.17
2017-02-19T11:10:51.690Z,1014.18
2017-02-19T11:12:04.805Z,1014.16
2017-02-19T11:13:17.498Z,1014.15
2017-02-19T11:14:30.599Z,1014.05
2017-02-19T11:15:43.695Z,1014.12
2017-02-19T11:16:56.841Z,1014.07
2017-02-19T11:18:09.937Z,1014.06
2017-02-19T11:19:22.661Z,1014
2017-02-19T11:20:35.753Z,1013.99
2017-02-19T11:21:49.100Z,1013.97
2017-02-19T11:23:02.264Z,1014.01
2017-02-19T11:24:15.363Z,1014.02
2017-02-19T11:25:28.057Z,1013.99
2017-02-19T11:26:41.133Z,1013.93
2017-02-19T11:27:54.225Z,1013.94
2017-02-19T11:29:07.327Z,1013.9
2017-02-19T11:30:20.438Z,1013.87
2017-02-19T11:31:32.784Z,1013.82
2017-02-19T11:32:45.886Z,1013.82
2017-02-19T11:33:58.995Z,1013.76
2017-02-19T11:35:11.724Z,1013.73
2017-02-19T11:36:24.844Z,1013.66
2017-02-19T11:37:37.571Z,1013.65
2017-02-19T11:38:50.639Z,1013.55
2017-02-19T11:40:03.364Z,1013.56
2017-02-19T11:41:15.302Z,1013.49
2017-02-19T11:42:28.404Z,1013.53
2017-02-19T11:43:40.751Z,1013.46
2017-02-19T11:44:53.865Z,1013.48
2017-02-19T11:46:06.960Z,1013.54
2017-02-19T11:47:19.256Z,1013.54
2017-02-19T11:48:32.348Z,1013.48
2017-02-19T11:49:45.104Z,1013.5
2017-02-19T11:50:57.793Z,1013.46
2017-02-19T11:52:10.525Z,1013.41
2017-02-19T11:53:23.242Z,1013.3
2017-02-19T11:54:36.337Z,1013.34
2017-02-19T11:55:49.075Z,1013.29
2017-02-19T11:57:02.173Z,1013.3
2017-02-19T11:58:15.311Z,1013.24
2017-02-19T11:59:28.433Z,1013.24
2017-02-19T12:00:41.543Z,1013.16
2017-02-19T12:01:54.667Z,1013.19
2017-02-19T12:03:07.752Z,1013.15
2017-02-19T12:04:20.048Z,1013.09
2017-02-19T12:05:33.161Z,1013.05
2017-02-19T12:06:45.839Z,1012.99
2017-02-19T12:07:58.918Z,1012.97
2017-02-19T12:09:11.638Z,1012.93
2017-02-19T12:10:24.727Z,1012.97
2017-02-19T12:11:37.849Z,1013.03
2017-02-19T12:12:50.944Z,1013.04
2017-02-19T12:14:04.082Z,1013
2017-02-19T12:15:16.779Z,1013.01
2017-02-19T12:16:29.913Z,1012.94
2017-02-19T12:17:42.602Z,1012.96
2017-02-19T12:18:55.691Z,1012.96
2017-02-19T12:20:08.443Z,1012.92
2017-02-19T12:21:21.546Z,1012.94
2017-02-19T12:22:34.662Z,1012.9
2017-02-19T12:23:47.718Z,1012.87
2017-02-19T12:25:00.779Z,1012.87
2017-02-19T12:26:12.697Z,1012.94
2017-02-19T12:27:25.817Z,1012.93
2017-02-19T12:28:38.940Z,1012.89
2017-02-19T12:29:52.027Z,1012.97
2017-02-19T12:31:05.168Z,1012.97
2017-02-19T12:32:17.502Z,1012.96
2017-02-19T12:33:30.584Z,1012.91
2017-02-19T12:34:43.669Z,1012.9
2017-02-19T12:35:56.766Z,1012.93
2017-02-19T12:37:09.495Z,1012.91
2017-02-19T12:38:22.491Z,1012.9
2017-02-19T12:39:35.229Z,1012.84
2017-02-19T12:40:48.337Z,1012.88
2017-02-19T12:42:01.455Z,1012.81
2017-02-19T12:43:14.541Z,1012.66
2017-02-19T12:44:27.649Z,1012.78
2017-02-19T12:45:40.764Z,1012.79
2017-02-19T12:46:53.860Z,1012.82
2017-02-19T12:48:06.642Z,1012.8
2017-02-19T12:49:19.699Z,1012.72
2017-02-19T12:50:32.825Z,1012.73
2017-02-19T12:51:45.893Z,1012.69
2017-02-19T12:52:59.009Z,1012.64
2017-02-19T12:54:11.764Z,1012.67
2017-02-19T12:55:24.848Z,1012.71
2017-02-19T12:56:37.977Z,1012.61
2017-02-19T12:57:50.766Z,1012.63
2017-02-19T12:59:03.868Z,1012.62
2017-02-19T13:00:16.970Z,1012.52
2017-02-19T13:01:29.729Z,1012.56
2017-02-19T13:02:42.426Z,1012.59
2017-02-19T13:03:55.513Z,1012.59
2017-02-19T13:05:08.265Z,1012.56
2017-02-19T13:06:21.387Z,1012.57
2017-02-19T13:07:34.493Z,1012.46
2017-02-19T13:08:46.868Z,1012.55
2017-02-19T13:09:59.938Z,1012.48
2017-02-19T13:11:13.077Z,1012.54
2017-02-19T13:12:26.167Z,1012.51
2017-02-19T13:13:39.248Z,1012.45
2017-02-19T13:14:52.362Z,1012.44
2017-02-19T13:16:05.410Z,1012.43
2017-02-19T13:17:18.055Z,1012.39
2017-02-19T13:18:31.172Z,1012.35
2017-02-19T13:19:43.535Z,1012.3
2017-02-19T13:20:56.640Z,1012.36
2017-02-19T13:22:09.351Z,1012.37
2017-02-19T13:23:22.460Z,1012.3
2017-02-19T13:24:35.568Z,1012.35
2017-02-19T13:25:48.647Z,1012.41
2017-02-19T13:27:01.771Z,1012.44
2017-02-19T13:28:14.819Z,1012.4
2017-02-19T13:29:27.935Z,1012.37
2017-02-19T13:30:40.704Z,1012.33
2017-02-19T13:31:53.426Z,1012.3
2017-02-19T13:33:06.521Z,1012.36
2017-02-19T13:34:19.224Z,1012.35
2017-02-19T13:35:31.947Z,1012.25
2017-02-19T13:36:44.660Z,1012.23
2017-02-19T13:37:57.780Z,1012.25
2017-02-19T13:39:10.482Z,1012.22
2017-02-19T13:40:22.398Z,1012.29
2017-02-19T13:41:35.500Z,1012.27
2017-02-19T13:42:48.918Z,1012.26
2017-02-19T13:44:01.965Z,1012.3
2017-02-19T13:45:14.306Z,1012.27
2017-02-19T13:46:27.387Z,1012.24
2017-02-19T13:47:40.476Z,1012.26
2017-02-19T13:48:53.275Z,1012.2
2017-02-19T13:50:06.376Z,1012.2
2017-02-19T13:51:18.760Z,1012.23
2017-02-19T13:52:31.912Z,1012.21
2017-02-19T13:53:45.009Z,1012.2
2017-02-19T13:54:58.100Z,1012.26
2017-02-19T13:56:11.200Z,1012.25
2017-02-19T13:57:24.343Z,1012.2
2017-02-19T13:58:37.028Z,1012.18
2017-02-19T13:59:49.706Z,1012.19
2017-02-19T14:01:02.778Z,1012.21
2017-02-19T14:02:15.154Z,1012.17
2017-02-19T14:03:28.250Z,1012.2
2017-02-19T14:04:41.345Z,1012.18
2017-02-19T14:05:54.442Z,1012.17
2017-02-19T14:07:07.541Z,1012.16
2017-02-19T14:08:20.628Z,1012.19
2017-02-19T14:09:33.759Z,1012.2
2017-02-19T14:10:46.831Z,1012.15
2017-02-19T14:11:59.988Z,1012.16
2017-02-19T14:13:13.108Z,1012.17
2017-02-19T14:14:26.214Z,1012.11
2017-02-19T14:15:39.660Z,1012.18
2017-02-19T14:16:52.390Z,1012.13
2017-02-19T14:18:05.496Z,1012.17
2017-02-19T14:19:17.465Z,1012.18
2017-02-19T14:20:30.572Z,1012.16
2017-02-19T14:21:43.681Z,1012.17
2017-02-19T14:22:56.387Z,1012.19
2017-02-19T14:24:09.503Z,1012.17
2017-02-19T14:25:22.181Z,1012.19
2017-02-19T14:26:35.265Z,1012.2
2017-02-19T14:27:48.311Z,1012.13
2017-02-19T14:29:01.383Z,1012.12
2017-02-19T14:30:14.510Z,1012.16
2017-02-19T14:31:27.591Z,1012.18
2017-02-19T14:32:40.301Z,1012.2
2017-02-19T14:33:52.995Z,1012.15
2017-02-19T14:35:06.143Z,1012.18
2017-02-19T14:36:19.263Z,1012.23
2017-02-19T14:37:32.330Z,1012.18
2017-02-19T14:38:45.401Z,1012.24
2017-02-19T14:39:58.526Z,1012.25
2017-02-19T14:41:10.841Z,1012.2
2017-02-19T14:42:23.923Z,1012.23
2017-02-19T14:43:36.633Z,1012.22
2017-02-19T14:44:49.329Z,1012.2
2017-02-19T14:46:02.409Z,1012.18
2017-02-19T14:47:15.152Z,1012.18